createdAt,value
2018-02-22T05:53:59.155Z,3
2018-02-22T05:59:59.568Z,7
2018-02-22T06:02:29.705Z,10
2018-02-22T06:04:59.833Z,13
2018-02-22T06:06:59.957Z,17
2018-02-22T06:08:30.044Z,20
2018-02-22T06:10:00.155Z,23
2018-02-22T06:11:30.300Z,27
2018-02-22T06:13:00.899Z,30
2018-02-22T06:15:01.200Z,33
2018-02-22T06:16:00.680Z,37
2018-02-22T06:17:00.695Z,40
2018-02-22T06:17:31.463Z,37
2018-02-22T06:19:00.685Z,40
2018-02-22T06:20:01.262Z,43
2018-02-22T06:21:00.952Z,47
2018-02-22T06:22:01.215Z,50
2018-02-22T06:22:30.908Z,53
2018-02-22T06:23:30.996Z,57
2018-02-22T06:24:31.079Z,60
2018-02-22T06:25:01.391Z,63
2018-02-22T06:25:31.106Z,67
2018-02-22T06:26:01.109Z,70
2018-02-22T06:28:01.248Z,73
2018-02-22T06:28:31.304Z,77
2018-02-22T06:29:01.316Z,80
2018-02-22T06:29:31.331Z,83
2018-02-22T06:30:01.366Z,87
2018-02-22T06:30:31.471Z,93
2018-02-22T06:31:01.428Z,100
2018-02-22T06:31:31.482Z,103
2018-02-22T06:32:01.493Z,107
2018-02-22T06:32:31.543Z,110
2018-02-22T06:33:01.612Z,117
2018-02-22T06:34:01.613Z,120
2018-02-22T06:34:31.632Z,123
2018-02-22T06:35:01.716Z,130
2018-02-22T06:35:31.698Z,140
2018-02-22T06:36:01.767Z,153
2018-02-22T06:36:31.776Z,160
2018-02-22T06:37:01.835Z,167
2018-02-22T06:38:01.890Z,160
2018-02-22T06:38:31.871Z,157
2018-02-22T06:39:01.932Z,153
2018-02-22T06:40:02.012Z,157
2018-02-22T06:41:02.109Z,163
2018-02-22T06:42:02.129Z,160
2018-02-22T06:42:32.700Z,157
2018-02-22T06:43:32.190Z,160
2018-02-22T06:44:02.294Z,173
2018-02-22T06:44:32.288Z,193
2018-02-22T06:45:02.344Z,227
2018-02-22T06:45:32.322Z,283
2018-02-22T06:46:02.408Z,353
2018-02-22T06:46:32.438Z,407
2018-02-22T06:47:02.480Z,443
2018-02-22T06:47:32.694Z,480
2018-02-22T06:48:02.490Z,497
2018-02-22T06:48:32.532Z,507
2018-02-22T06:49:02.543Z,513
2018-02-22T06:49:32.626Z,520
2018-02-22T06:50:02.592Z,547
2018-02-22T06:50:32.633Z,530
2018-02-22T06:51:02.674Z,527
2018-02-22T06:51:32.707Z,560
2018-02-22T06:52:02.704Z,587
2018-02-22T06:52:32.773Z,637
2018-02-22T06:53:02.795Z,707
2018-02-22T06:53:32.836Z,773
2018-02-22T06:54:02.844Z,877
2018-02-22T06:54:32.923Z,1043
2018-02-22T06:55:02.938Z,1133
2018-02-22T06:55:32.938Z,1233
2018-02-22T06:56:03.005Z,1323
2018-02-22T06:56:32.981Z,1443
2018-02-22T06:57:03.108Z,1553
2018-02-22T06:57:33.079Z,1580
2018-02-22T06:58:03.091Z,1560
2018-02-22T06:58:33.106Z,1583
2018-02-22T06:59:03.148Z,1617
2018-02-22T06:59:33.161Z,1593
2018-02-22T07:00:03.275Z,1583
2018-02-22T07:00:33.246Z,1593
2018-02-22T07:01:03.369Z,1590
2018-02-22T07:01:33.443Z,1593
2018-02-22T07:02:03.474Z,1600
2018-02-22T07:02:33.557Z,1613
2018-02-22T07:03:03.556Z,1630
2018-02-22T07:03:33.558Z,1647
2018-02-22T07:04:03.601Z,1663
2018-02-22T07:04:33.627Z,1680
2018-02-22T07:05:03.681Z,1693
2018-02-22T07:05:33.692Z,1707
2018-02-22T07:06:03.753Z,1723
2018-02-22T07:06:33.760Z,1750
2018-02-22T07:07:03.824Z,1780
2018-02-22T07:07:33.870Z,1817
2018-02-22T07:08:03.849Z,1857
2018-02-22T07:08:33.914Z,1897
2018-02-22T07:09:03.938Z,1930
2018-02-22T07:09:33.920Z,1967
2018-02-22T07:10:03.987Z,2003
2018-02-22T07:10:33.983Z,2043
2018-02-22T07:11:04.023Z,2080
2018-02-22T07:11:34.063Z,2117
2018-02-22T07:12:04.072Z,2157
2018-02-22T07:12:34.113Z,2207
2018-02-22T07:13:04.127Z,2257
2018-02-22T07:13:34.208Z,2297
2018-02-22T07:14:04.234Z,2327
2018-02-22T07:14:34.224Z,2353
2018-02-22T07:15:04.265Z,2380
2018-02-22T07:15:34.291Z,2387
2018-02-22T07:16:04.340Z,2380
2018-02-22T07:16:34.387Z,2377
2018-02-22T07:17:04.398Z,2380
2018-02-22T07:17:34.489Z,2393
2018-02-22T07:18:04.492Z,2407
2018-02-22T07:18:34.455Z,2437
2018-02-22T07:19:04.500Z,2450
2018-02-22T07:19:34.557Z,2463
2018-02-22T07:20:04.598Z,2487
2018-02-22T07:20:34.592Z,2523
2018-02-22T07:21:04.909Z,2560
2018-02-22T07:21:34.639Z,2587
2018-02-22T07:22:04.697Z,2623
2018-02-22T07:22:34.778Z,2657
2018-02-22T07:23:16.649Z,2680
2018-02-22T07:23:34.764Z,2713
2018-02-22T07:24:04.784Z,2743
2018-02-22T07:24:34.811Z,2777
2018-02-22T07:25:04.848Z,2830
2018-02-22T07:25:34.882Z,2863
2018-02-22T07:26:04.915Z,2887
2018-02-22T07:26:34.944Z,2917
2018-02-22T07:27:04.970Z,2950
2018-02-22T07:27:35.012Z,3003
2018-02-22T07:28:05.042Z,3060
2018-02-22T07:28:35.065Z,3123
2018-02-22T07:29:05.102Z,3187
2018-02-22T07:29:35.160Z,3227
2018-02-22T07:30:05.177Z,3293
2018-02-22T07:30:35.243Z,3360
2018-02-22T07:31:05.216Z,3377
2018-02-22T07:31:35.278Z,3387
2018-02-22T07:32:35.341Z,3413
2018-02-22T07:33:05.407Z,3450
2018-02-22T07:33:35.433Z,3470
2018-02-22T07:34:05.463Z,3507
2018-02-22T07:34:35.480Z,3637
2018-02-22T07:35:05.601Z,3897
2018-02-22T07:35:35.500Z,4267
2018-02-22T07:36:05.605Z,4557
2018-02-22T07:36:35.569Z,4647
2018-02-22T07:37:05.602Z,4570
2018-02-22T07:37:35.618Z,4597
2018-02-22T07:38:05.924Z,4527
2018-02-22T07:38:35.704Z,4500
2018-02-22T07:39:05.695Z,4510
2018-02-22T07:39:35.733Z,4480
2018-02-22T07:40:05.781Z,4467
2018-02-22T07:40:35.813Z,4550
2018-02-22T07:41:05.890Z,4540
2018-02-22T07:41:35.871Z,4550
2018-02-22T07:42:05.889Z,4633
2018-02-22T07:42:35.933Z,4763
2018-02-22T07:43:05.946Z,5003
2018-02-22T07:43:35.976Z,5083
2018-02-22T07:44:06.286Z,5047
2018-02-22T07:44:36.040Z,4967
2018-02-22T07:45:06.113Z,4843
2018-02-22T07:45:36.100Z,4833
2018-02-22T07:46:06.136Z,4873
2018-02-22T07:46:36.156Z,4910
2018-02-22T07:47:06.229Z,4977
2018-02-22T07:47:36.267Z,5297
2018-02-22T07:48:06.307Z,5490
2018-02-22T07:48:36.321Z,5537
2018-02-22T07:49:06.314Z,5470
2018-02-22T07:49:36.374Z,5273
2018-02-22T07:50:06.414Z,5073
2018-02-22T07:50:36.466Z,5357
2018-02-22T07:51:06.440Z,5570
2018-02-22T07:51:36.507Z,5830
2018-02-22T07:52:06.523Z,6350
2018-02-22T07:52:36.565Z,6687
2018-02-22T07:53:06.675Z,7293
2018-02-22T07:53:36.661Z,7607
2018-02-22T07:54:06.674Z,7650
2018-02-22T07:54:36.714Z,8037
2018-02-22T07:55:06.765Z,8320
2018-02-22T07:55:36.763Z,8567
2018-02-22T07:56:06.804Z,8590
2018-02-22T07:56:36.842Z,8783
2018-02-22T07:57:06.856Z,8740
2018-02-22T07:57:36.905Z,8843
2018-02-22T07:58:06.952Z,9090
2018-02-22T07:58:36.942Z,9173
2018-02-22T07:59:07.008Z,9350
2018-02-22T07:59:37.028Z,9527
2018-02-22T08:00:07.089Z,9507
2018-02-22T08:00:37.110Z,9850
2018-02-22T08:01:07.091Z,10113
2018-02-22T08:01:37.116Z,10137
2018-02-22T08:02:07.177Z,10317
2018-02-22T08:02:37.203Z,10550
2018-02-22T08:03:07.247Z,10533
2018-02-22T08:03:37.254Z,10407
2018-02-22T08:04:07.269Z,10380
2018-02-22T08:04:37.270Z,10570
2018-02-22T08:05:07.331Z,10690
2018-02-22T08:05:37.341Z,10873
2018-02-22T08:06:07.390Z,10967
2018-02-22T08:06:37.383Z,10990
2018-02-22T08:07:07.456Z,11153
2018-02-22T08:07:37.549Z,11400
2018-02-22T08:08:07.595Z,11540
2018-02-22T08:08:37.532Z,11430
2018-02-22T08:09:07.601Z,11173
2018-02-22T08:09:37.593Z,11373
2018-02-22T08:10:07.619Z,11527
2018-02-22T08:10:37.884Z,11837
2018-02-22T08:11:07.696Z,11960
2018-02-22T08:11:37.688Z,11893
2018-02-22T08:12:07.734Z,12033
2018-02-22T08:12:37.784Z,12143
2018-02-22T08:13:07.843Z,12373
2018-02-22T08:13:37.815Z,12510
2018-02-22T08:14:07.847Z,12677
2018-02-22T08:14:37.889Z,12710
2018-02-22T08:15:07.909Z,12800
2018-02-22T08:15:37.947Z,13000
2018-02-22T08:16:07.985Z,13047
2018-02-22T08:16:38.013Z,12987
2018-02-22T08:17:08.034Z,13057
2018-02-22T08:17:38.073Z,13230
2018-02-22T08:18:08.126Z,13187
2018-02-22T08:18:38.131Z,13290
2018-02-22T08:19:08.195Z,13330
2018-02-22T08:19:38.189Z,13507
2018-02-22T08:20:08.227Z,13600
2018-02-22T08:20:38.309Z,13520
2018-02-22T08:21:08.294Z,13433
2018-02-22T08:21:38.350Z,13510
2018-02-22T08:22:08.394Z,13820
2018-02-22T08:22:38.454Z,14013
2018-02-22T08:23:08.506Z,13957
2018-02-22T08:23:38.490Z,14050
2018-02-22T08:24:08.564Z,14020
2018-02-22T08:24:38.566Z,14050
2018-02-22T08:25:08.543Z,14163
2018-02-22T08:25:38.576Z,14270
2018-02-22T08:26:08.617Z,13987
2018-02-22T08:26:38.663Z,14010
2018-02-22T08:27:08.672Z,14027
2018-02-22T08:27:38.723Z,13897
2018-02-22T08:28:08.710Z,14680
2018-02-22T08:28:38.733Z,14477
2018-02-22T08:29:08.805Z,14423
2018-02-22T08:29:38.815Z,10260
2018-02-22T08:30:08.843Z,13440
2018-02-22T08:30:38.878Z,12197
2018-02-22T08:31:08.925Z,13490
2018-02-22T08:31:38.914Z,14590
2018-02-22T08:32:09.045Z,6783
2018-02-22T08:32:38.983Z,7980
2018-02-22T08:33:09.095Z,8247
2018-02-22T08:33:39.061Z,8910
2018-02-22T08:34:09.131Z,7660
2018-02-22T08:34:39.156Z,8050
2018-02-22T08:35:39.172Z,8247
2018-02-22T08:36:09.215Z,8697
2018-02-22T08:36:39.308Z,7300
2018-02-22T08:37:09.277Z,7397
2018-02-22T08:37:39.323Z,10963
2018-02-22T08:38:09.405Z,13367
2018-02-22T08:38:39.350Z,8850
2018-02-22T08:39:09.466Z,10487
2018-02-22T08:39:39.454Z,16467
2018-02-22T08:40:09.533Z,10917
2018-02-22T08:40:39.527Z,9393
2018-02-22T08:41:09.568Z,9593
2018-02-22T08:41:39.554Z,10010
2018-02-22T08:42:09.565Z,10873
2018-02-22T08:42:39.632Z,16543
2018-02-22T08:43:09.640Z,12730
2018-02-22T08:43:39.728Z,15187
2018-02-22T08:44:09.732Z,10567
2018-02-22T08:44:39.768Z,9293
2018-02-22T08:45:09.866Z,8420
2018-02-22T08:45:39.821Z,7853
2018-02-22T08:46:09.894Z,7230
2018-02-22T08:46:39.870Z,6200
2018-02-22T08:47:09.948Z,5333
2018-02-22T08:47:39.942Z,4690
2018-02-22T08:48:09.992Z,4290
2018-02-22T08:48:39.994Z,4093
2018-02-22T08:49:10.075Z,3927
2018-02-22T08:49:40.099Z,3753
2018-02-22T08:50:10.098Z,3687
2018-02-22T08:50:40.169Z,3797
2018-02-22T08:51:10.131Z,4020
2018-02-22T08:51:40.189Z,4117
2018-02-22T08:52:10.227Z,4380
2018-02-22T08:52:40.272Z,4670
2018-02-22T08:53:10.282Z,6910
2018-02-22T08:53:40.304Z,6373
2018-02-22T08:54:10.335Z,13217
2018-02-22T08:54:40.340Z,15597
2018-02-22T08:55:10.374Z,16323
2018-02-22T08:55:40.403Z,17607
2018-02-22T08:56:10.455Z,17580
2018-02-22T08:56:40.459Z,18377
2018-02-22T08:57:10.583Z,18163
2018-02-22T08:57:40.522Z,18200
2018-02-22T08:58:10.548Z,18667
2018-02-22T08:58:40.594Z,19040
2018-02-22T08:59:10.618Z,19447
2018-02-22T08:59:40.665Z,19383
2018-02-22T09:00:10.791Z,19480
2018-02-22T09:00:40.716Z,19050
2018-02-22T09:01:10.748Z,18470
2018-02-22T09:01:40.767Z,13937
2018-02-22T09:02:10.803Z,15940
2018-02-22T09:02:40.841Z,16763
2018-02-22T09:03:10.898Z,18037
2018-02-22T09:03:40.886Z,18420
2018-02-22T09:04:10.948Z,17850
2018-02-22T09:04:40.999Z,19070
2018-02-22T09:05:11.073Z,18480
2018-02-22T09:05:41.053Z,18103
2018-02-22T09:06:11.101Z,19057
2018-02-22T09:06:41.430Z,18170
2018-02-22T09:07:11.109Z,17520
2018-02-22T09:07:41.237Z,17110
2018-02-22T09:08:11.502Z,16773
2018-02-22T09:08:41.230Z,17383
2018-02-22T09:09:11.315Z,17640
2018-02-22T09:09:41.306Z,17527
2018-02-22T09:10:11.319Z,16923
2018-02-22T09:10:41.358Z,16770
2018-02-22T09:11:11.419Z,16883
2018-02-22T09:11:41.448Z,17017
2018-02-22T09:12:11.470Z,16757
2018-02-22T09:12:41.476Z,16643
2018-02-22T09:13:11.546Z,17487
2018-02-22T09:13:41.533Z,18613
2018-02-22T09:14:11.556Z,18710
2018-02-22T09:14:41.586Z,18937
2018-02-22T09:15:11.611Z,18890
2018-02-22T09:15:41.721Z,18887
2018-02-22T09:16:11.665Z,18800
2018-02-22T09:16:41.700Z,18857
2018-02-22T09:17:11.734Z,19310
2018-02-22T09:17:41.755Z,19633
2018-02-22T09:18:11.795Z,20073
2018-02-22T09:18:41.822Z,20550
2018-02-22T09:19:11.839Z,20363
2018-02-22T09:19:41.887Z,20700
2018-02-22T09:20:11.909Z,20860
2018-02-22T09:20:41.941Z,21017
2018-02-22T09:21:11.974Z,20570
2018-02-22T09:21:42.033Z,20310
2018-02-22T09:22:12.030Z,20157
2018-02-22T09:22:42.067Z,20693
2018-02-22T09:23:12.135Z,21220
2018-02-22T09:23:42.156Z,21120
2018-02-22T09:24:12.176Z,21383
2018-02-22T09:24:42.188Z,21377
2018-02-22T09:25:12.300Z,21540
2018-02-22T09:25:42.274Z,22167
2018-02-22T09:26:12.347Z,22407
2018-02-22T09:26:42.313Z,21977
2018-02-22T09:27:12.393Z,21643
2018-02-22T09:27:42.439Z,21827
2018-02-22T09:28:12.467Z,22000
2018-02-22T09:28:42.494Z,22070
2018-02-22T09:29:12.542Z,22027
2018-02-22T09:29:42.548Z,21633
2018-02-22T09:30:12.602Z,22087
2018-02-22T09:30:42.656Z,22553
2018-02-22T09:31:12.668Z,21760
2018-02-22T09:31:42.672Z,21703
2018-02-22T09:32:12.717Z,8840
2018-02-22T09:32:42.753Z,9240
2018-02-22T09:33:12.786Z,12490
2018-02-22T09:33:42.820Z,20460
2018-02-22T09:34:12.873Z,23040
2018-02-22T09:34:42.874Z,20033
2018-02-22T09:35:12.906Z,20537
2018-02-22T09:35:42.931Z,5713
2018-02-22T09:36:12.993Z,5247
2018-02-22T09:36:43.150Z,5437
2018-02-22T09:37:13.007Z,6027
2018-02-22T09:37:43.051Z,6400
2018-02-22T09:38:13.082Z,7663
2018-02-22T09:38:43.069Z,16553
2018-02-22T09:39:13.134Z,20893
2018-02-22T09:39:43.254Z,19900
2018-02-22T09:40:13.279Z,23170
2018-02-22T09:40:43.316Z,23590
2018-02-22T09:41:13.358Z,22293
2018-02-22T09:41:43.381Z,23127
2018-02-22T09:42:13.407Z,21210
2018-02-22T09:42:43.443Z,9443
2018-02-22T09:43:13.473Z,10960
2018-02-22T09:43:43.475Z,15700
2018-02-22T09:44:13.487Z,13140
2018-02-22T09:44:43.574Z,10640
2018-02-22T09:45:13.609Z,9977
2018-02-22T09:45:43.630Z,12793
2018-02-22T09:46:13.907Z,15730
2018-02-22T09:46:43.650Z,21360
2018-02-22T09:47:13.683Z,22777
2018-02-22T09:47:43.696Z,22027
2018-02-22T09:48:13.729Z,17670
2018-02-22T09:48:43.766Z,20837
2018-02-22T09:49:13.775Z,19650
2018-02-22T09:49:43.831Z,16187
2018-02-22T09:50:13.901Z,13790
2018-02-22T09:50:43.893Z,10857
2018-02-22T09:51:13.898Z,15107
2018-02-22T09:51:43.949Z,15233
2018-02-22T09:52:13.977Z,22363
2018-02-22T09:52:43.998Z,16513
2018-02-22T09:53:14.064Z,18720
2018-02-22T09:53:44.054Z,19967
2018-02-22T09:54:14.127Z,11533
2018-02-22T09:54:44.129Z,12403
2018-02-22T09:55:14.160Z,17923
2018-02-22T09:55:44.275Z,7267
2018-02-22T09:56:14.213Z,6660
2018-02-22T09:56:44.285Z,6420
2018-02-22T09:57:14.292Z,6730
2018-02-22T09:57:44.360Z,7190
2018-02-22T09:58:14.458Z,8197
2018-02-22T09:58:44.436Z,7540
2018-02-22T09:59:14.445Z,7547
2018-02-22T09:59:44.482Z,8373
2018-02-22T10:00:14.458Z,9890
2018-02-22T10:00:44.538Z,9690
2018-02-22T10:01:14.520Z,8240
2018-02-22T10:01:44.555Z,7733
2018-02-22T10:02:14.586Z,9843
2018-02-22T10:02:44.612Z,22827
2018-02-22T10:03:14.681Z,18413
2018-02-22T10:03:44.714Z,9493
2018-02-22T10:04:14.769Z,9190
2018-02-22T10:04:44.757Z,8590
2018-02-22T10:05:14.766Z,8483
2018-02-22T10:05:44.809Z,9270
2018-02-22T10:06:14.845Z,9873
2018-02-22T10:06:44.881Z,11677
2018-02-22T10:07:14.894Z,20573
2018-02-22T10:07:44.932Z,15317
2018-02-22T10:08:14.962Z,10087
2018-02-22T10:08:44.980Z,9133
2018-02-22T10:09:15.077Z,8637
2018-02-22T10:09:45.064Z,8393
2018-02-22T10:10:15.092Z,8273
2018-02-22T10:10:45.128Z,8033
2018-02-22T10:11:15.129Z,7747
2018-02-22T10:11:45.196Z,7353
2018-02-22T10:12:15.196Z,6800
2018-02-22T10:12:45.257Z,6767
2018-02-22T10:13:15.257Z,7007
2018-02-22T10:13:45.340Z,7720
2018-02-22T10:14:15.354Z,9323
2018-02-22T10:14:45.404Z,13850
2018-02-22T10:15:15.397Z,11223
2018-02-22T10:15:45.453Z,12577
2018-02-22T10:16:15.495Z,27097
2018-02-22T10:16:45.521Z,20967
2018-02-22T10:17:15.586Z,19103
2018-02-22T10:17:45.609Z,13773
2018-02-22T10:18:15.627Z,24123
2018-02-22T10:18:45.646Z,27773
2018-02-22T10:19:15.648Z,27420
2018-02-22T10:19:45.714Z,30130
2018-02-22T10:20:15.742Z,18357
2018-02-22T10:20:45.777Z,26717
2018-02-22T10:21:15.831Z,29113
2018-02-22T10:21:45.849Z,27923
2018-02-22T10:22:15.838Z,25867
2018-02-22T10:22:45.920Z,28567
2018-02-22T10:23:15.907Z,29810
2018-02-22T10:23:45.935Z,17917
2018-02-22T10:24:15.957Z,26690
2018-02-22T10:24:46.031Z,29100
2018-02-22T10:25:16.079Z,30507
2018-02-22T10:25:46.094Z,29120
2018-02-22T10:26:16.097Z,29807
2018-02-22T10:26:46.125Z,28437
2018-02-22T10:27:16.176Z,28300
2018-02-22T10:27:46.160Z,29380
2018-02-22T10:28:16.202Z,29293
2018-02-22T10:28:46.275Z,29170
2018-02-22T10:29:16.274Z,28683
2018-02-22T10:29:46.306Z,28570
2018-02-22T10:30:16.590Z,27933
2018-02-22T10:30:46.388Z,28027
2018-02-22T10:31:16.396Z,27643
2018-02-22T10:31:46.434Z,27273
2018-02-22T10:32:16.462Z,27643
2018-02-22T10:32:46.473Z,27113
2018-02-22T10:33:16.531Z,26120
2018-02-22T10:33:46.548Z,25467
2018-02-22T10:34:16.581Z,24547
2018-02-22T10:34:46.581Z,25733
2018-02-22T10:35:16.658Z,26653
2018-02-22T10:35:46.673Z,27503
2018-02-22T10:36:16.680Z,27073
2018-02-22T10:36:46.733Z,26817
2018-02-22T10:37:16.741Z,26467
2018-02-22T10:37:46.769Z,27310
2018-02-22T10:38:16.813Z,27060
2018-02-22T10:38:46.835Z,27493
2018-02-22T10:39:16.858Z,27507
2018-02-22T10:39:46.890Z,27327
2018-02-22T10:40:16.954Z,27497
2018-02-22T10:40:47.006Z,27983
2018-02-22T10:41:16.975Z,25487
2018-02-22T10:41:47.019Z,27180
2018-02-22T10:42:17.056Z,27120
2018-02-22T10:42:47.079Z,27870
2018-02-22T10:43:17.101Z,27807
2018-02-22T10:43:47.166Z,27883
2018-02-22T10:44:17.165Z,27197
2018-02-22T10:44:47.232Z,23863
2018-02-22T10:45:17.283Z,29270
2018-02-22T10:45:47.258Z,27993
2018-02-22T10:46:17.351Z,25350
2018-02-22T10:46:47.344Z,28820
2018-02-22T10:47:17.396Z,29380
2018-02-22T10:47:47.470Z,26413
2018-02-22T10:48:17.474Z,25637
2018-02-22T10:48:47.494Z,26023
2018-02-22T10:49:17.528Z,26707
2018-02-22T10:49:47.540Z,10033
2018-02-22T10:50:17.590Z,9547
2018-02-22T10:50:47.617Z,10163
2018-02-22T10:51:17.640Z,25423
2018-02-22T10:51:47.712Z,13987
2018-02-22T10:52:17.687Z,11960
2018-02-22T10:52:47.721Z,22010
2018-02-22T10:53:17.727Z,27767
2018-02-22T10:53:47.758Z,27087
2018-02-22T10:54:17.902Z,28267
2018-02-22T10:54:47.859Z,23223
2018-02-22T10:55:17.839Z,26680
2018-02-22T10:55:47.895Z,21980
2018-02-22T10:56:17.972Z,21637
2018-02-22T10:56:47.953Z,26443
2018-02-22T10:57:17.970Z,13370
2018-02-22T10:57:47.999Z,23767
2018-02-22T10:58:18.032Z,28163
2018-02-22T10:58:48.090Z,28370
2018-02-22T10:59:18.091Z,28490
2018-02-22T10:59:48.119Z,28987
2018-02-22T11:00:18.171Z,28150
2018-02-22T11:00:48.188Z,29887
2018-02-22T11:01:18.279Z,28973
2018-02-22T11:01:48.322Z,28770
2018-02-22T11:02:18.375Z,21893
2018-02-22T11:02:48.303Z,28527
2018-02-22T11:03:18.397Z,29187
2018-02-22T11:03:48.399Z,29303
2018-02-22T11:04:18.456Z,25397
2018-02-22T11:04:48.474Z,30010
2018-02-22T11:05:18.510Z,28093
2018-02-22T11:05:48.516Z,28833
2018-02-22T11:06:18.830Z,29957
2018-02-22T11:06:48.591Z,31157
2018-02-22T11:07:18.639Z,31927
2018-02-22T11:07:48.657Z,31720
2018-02-22T11:08:18.717Z,31300
2018-02-22T11:08:48.730Z,31200
2018-02-22T11:09:18.792Z,31493
2018-02-22T11:09:48.814Z,31827
2018-02-22T11:10:18.797Z,32000
2018-02-22T11:10:48.854Z,31727
2018-02-22T11:11:18.914Z,31330
2018-02-22T11:11:48.908Z,31363
2018-02-22T11:12:18.935Z,31137
2018-02-22T11:12:49.005Z,32510
2018-02-22T11:13:19.154Z,33917
2018-02-22T11:13:49.079Z,32037
2018-02-22T11:14:19.061Z,31423
2018-02-22T11:14:49.095Z,30107
2018-02-22T11:15:19.103Z,29337
2018-02-22T11:15:49.178Z,33273
2018-02-22T11:16:19.240Z,33743
2018-02-22T11:16:49.176Z,29440
2018-02-22T11:17:19.240Z,32547
2018-02-22T11:17:49.282Z,32617
2018-02-22T11:18:19.314Z,31147
2018-02-22T11:18:49.353Z,32857
2018-02-22T11:19:19.370Z,34073
2018-02-22T11:19:49.405Z,33417
2018-02-22T11:20:19.402Z,33087
2018-02-22T11:20:49.424Z,32603
2018-02-22T11:21:19.596Z,32173
2018-02-22T11:21:49.525Z,31780
2018-02-22T11:22:19.510Z,31363
2018-02-22T11:22:49.566Z,22393
2018-02-22T11:23:19.625Z,12693
2018-02-22T11:23:49.617Z,13163
2018-02-22T11:24:19.635Z,31360
2018-02-22T11:24:49.693Z,33587
2018-02-22T11:25:19.695Z,35363
2018-02-22T11:25:49.731Z,34540
2018-02-22T11:26:19.808Z,34247
2018-02-22T11:26:49.805Z,32537
2018-02-22T11:27:19.828Z,27633
2018-02-22T11:27:49.845Z,31367
2018-02-22T11:28:19.884Z,26570
2018-02-22T11:28:49.901Z,19680
2018-02-22T11:29:19.939Z,11967
2018-02-22T11:29:50.004Z,9950
2018-02-22T11:30:20.007Z,9883
2018-02-22T11:30:50.038Z,9640
2018-02-22T11:31:20.153Z,11103
2018-02-22T11:31:50.119Z,24390
2018-02-22T11:32:20.136Z,20027
2018-02-22T11:32:50.208Z,16537
2018-02-22T11:33:20.261Z,7557
2018-02-22T11:33:50.231Z,6400
2018-02-22T11:34:20.300Z,5907
2018-02-22T11:34:50.274Z,5377
2018-02-22T11:35:20.359Z,5043
2018-02-22T11:35:50.353Z,4860
2018-02-22T11:36:20.427Z,4707
2018-02-22T11:36:50.394Z,4417
2018-02-22T11:37:20.505Z,4340
2018-02-22T11:37:50.483Z,4273
2018-02-22T11:38:20.576Z,4150
2018-02-22T11:38:50.523Z,4047
2018-02-22T11:39:20.599Z,4020
2018-02-22T11:39:50.601Z,4120
2018-02-22T11:40:20.675Z,4113
2018-02-22T11:40:50.669Z,4067
2018-02-22T11:41:20.694Z,3983
2018-02-22T11:41:50.807Z,3887
2018-02-22T11:42:50.765Z,4143
2018-02-22T11:43:20.869Z,4593
2018-02-22T11:43:50.834Z,5157
2018-02-22T11:44:20.863Z,5967
2018-02-22T11:44:50.899Z,7367
2018-02-22T11:45:20.918Z,21897
2018-02-22T11:45:50.971Z,7910
2018-02-22T11:46:21.063Z,6267
2018-02-22T11:46:51.015Z,5727
2018-02-22T11:47:21.062Z,5697
2018-02-22T11:47:51.153Z,6110
2018-02-22T11:48:21.108Z,7413
2018-02-22T11:48:51.148Z,21177
2018-02-22T11:49:21.192Z,22773
2018-02-22T11:49:51.276Z,8533
2018-02-22T11:50:21.278Z,28093
2018-02-22T11:50:51.292Z,26110
2018-02-22T11:51:21.623Z,26580
2018-02-22T11:51:51.382Z,24797
2018-02-22T11:52:21.454Z,28960
2018-02-22T11:52:51.429Z,29717
2018-02-22T11:53:21.498Z,8197
2018-02-22T11:53:51.463Z,10013
2018-02-22T11:54:21.528Z,7473
2018-02-22T11:54:51.539Z,6910
2018-02-22T11:55:21.632Z,9083
2018-02-22T11:55:51.627Z,6817
2018-02-22T11:56:21.650Z,9677
2018-02-22T11:56:51.680Z,11863
2018-02-22T11:57:21.683Z,17607
2018-02-22T11:57:51.686Z,7707
2018-02-22T11:58:21.863Z,6923
2018-02-22T11:58:51.820Z,23997
2018-02-22T11:59:21.816Z,8287
2018-02-22T11:59:51.861Z,11283
2018-02-22T12:00:21.890Z,28843
2018-02-22T12:00:51.933Z,29570
2018-02-22T12:01:21.981Z,28790
2018-02-22T12:01:51.972Z,7697
2018-02-22T12:02:22.029Z,19910
2018-02-22T12:02:52.064Z,6250
2018-02-22T12:03:22.153Z,9980
2018-02-22T12:03:52.139Z,28717
2018-02-22T12:04:22.155Z,29123
2018-02-22T12:04:52.190Z,29073
2018-02-22T12:05:22.235Z,29257
2018-02-22T12:05:52.270Z,18507
2018-02-22T12:06:22.260Z,5953
2018-02-22T12:06:52.300Z,5207
2018-02-22T12:07:22.315Z,5760
2018-02-22T12:07:52.380Z,19583
2018-02-22T12:08:22.473Z,28340
2018-02-22T12:08:52.411Z,28993
2018-02-22T12:09:22.457Z,7743
2018-02-22T12:09:52.446Z,8587
2018-02-22T12:10:22.494Z,29040
2018-02-22T12:10:52.578Z,29683
2018-02-22T12:11:22.563Z,28663
2018-02-22T12:11:52.558Z,27063
2018-02-22T12:12:22.658Z,29063
2018-02-22T12:12:52.613Z,29110
2018-02-22T12:13:22.760Z,28833
2018-02-22T12:13:52.705Z,19720
2018-02-22T12:14:22.769Z,10457
2018-02-22T12:14:52.738Z,27107
2018-02-22T12:15:22.781Z,7387
2018-02-22T12:15:52.803Z,7297
2018-02-22T12:16:22.860Z,6953
2018-02-22T12:16:52.856Z,7160
2018-02-22T12:17:22.896Z,7777
2018-02-22T12:17:52.937Z,27833
2018-02-22T12:18:22.963Z,27617
2018-02-22T12:18:53.057Z,27017
2018-02-22T12:19:23.054Z,28087
2018-02-22T12:19:53.108Z,26567
2018-02-22T12:20:23.071Z,18227
2018-02-22T12:20:53.126Z,29873
2018-02-22T12:21:23.140Z,30127
2018-02-22T12:21:53.177Z,28350
2018-02-22T12:22:23.246Z,29847
2018-02-22T12:22:53.236Z,12600
2018-02-22T12:23:23.300Z,7350
2018-02-22T12:23:53.300Z,6893
2018-02-22T12:24:23.457Z,10400
2018-02-22T12:24:53.383Z,25423
2018-02-22T12:25:23.431Z,11743
2018-02-22T12:25:53.469Z,21370
2018-02-22T12:26:23.483Z,8313
2018-02-22T12:26:53.550Z,12007
2018-02-22T12:27:23.579Z,13687
2018-02-22T12:27:53.527Z,6080
2018-02-22T12:28:23.608Z,5537
2018-02-22T12:28:53.614Z,5987
2018-02-22T12:29:23.717Z,9023
2018-02-22T12:29:53.947Z,22730
2018-02-22T12:30:23.763Z,27020
2018-02-22T12:30:53.775Z,27270
2018-02-22T12:31:23.781Z,28800
2018-02-22T12:31:53.788Z,29100
2018-02-22T12:32:23.814Z,28403
2018-02-22T12:32:53.839Z,28477
2018-02-22T12:33:23.888Z,28497
2018-02-22T12:33:53.911Z,28273
2018-02-22T12:34:24.414Z,27967
2018-02-22T12:34:53.980Z,28433
2018-02-22T12:35:23.999Z,28793
2018-02-22T12:35:54.046Z,24097
2018-02-22T12:36:24.075Z,25413
2018-02-22T12:36:54.098Z,22663
2018-02-22T12:37:24.128Z,10723
2018-02-22T12:37:54.206Z,27603
2018-02-22T12:38:24.183Z,28053
2018-02-22T12:38:54.214Z,28047
2018-02-22T12:39:24.347Z,23773
2018-02-22T12:39:54.318Z,20627
2018-02-22T12:40:24.322Z,26387
2018-02-22T12:40:54.381Z,27520
2018-02-22T12:41:24.420Z,28673
2018-02-22T12:41:54.462Z,29213
2018-02-22T12:42:24.475Z,28370
2018-02-22T12:42:54.503Z,28567
2018-02-22T12:43:24.579Z,27793
2018-02-22T12:43:54.561Z,26577
2018-02-22T12:44:24.646Z,27110
2018-02-22T12:44:54.623Z,26010
2018-02-22T12:45:24.696Z,25357
2018-02-22T12:45:54.727Z,11850
2018-02-22T12:46:24.744Z,9167
2018-02-22T12:46:54.725Z,9237
2018-02-22T12:47:24.772Z,7087
2018-02-22T12:47:54.838Z,6810
2018-02-22T12:48:24.861Z,7200
2018-02-22T12:48:54.901Z,7853
2018-02-22T12:49:24.973Z,8653
2018-02-22T12:49:54.922Z,28643
2018-02-22T12:50:24.973Z,27317
2018-02-22T12:50:55.018Z,26093
2018-02-22T12:51:25.070Z,13953
2018-02-22T12:51:55.084Z,27010
2018-02-22T12:52:25.128Z,28327
2018-02-22T12:52:55.103Z,27477
2018-02-22T12:53:25.191Z,22503
2018-02-22T12:53:55.173Z,27633
2018-02-22T12:54:25.224Z,27443
2018-02-22T12:54:55.222Z,27640